KNUW/NUW METAR and TAF weather

Enter ICAO airport designator
Station Type Date Time Source
KNUW METAR 2022/11/27 09:01 UTC NOAA

KNUW 270901Z 24023G29KT 6SM RA BR FEW018 BKN028 OVC037 08/07 A2996 RMK AO2 PK WND 24029/0900 WSHFT 0845 P0001 T00830067 VISNO $


Station Type Date Time Source
KNUW Decoded METAR 2022/11/27 09:01 UTC NOAA

NAS WHIDBEY ISLAND, WA, United States (KNUW) 48-21N 122-39W 8M
Nov 27, 2022 - 04:01 AM EST / 2022.11.27 0901 UTC
Wind: from the WSW (240 degrees) at 26 MPH (23 KT) gusting to 33 MPH (29 KT):0
Visibility: 6 mile(s):0
Sky conditions: overcast
Weather: rain; mist
Precipitation last hour: 0.01 inches
Temperature: 46.9 F (8.3 C)
Dew Point: 44.1 F (6.7 C)
Relative Humidity: 89%
Pressure (altimeter): 29.96 in. Hg (1014 hPa)
ob: KNUW 270901Z 24023G29KT 6SM RA BR FEW018 BKN028 OVC037 08/07 A2996 RMK AO2 PK WND 24029/0900 WSHFT 0845 P0001 T00830067 VISNO
cycle: 9

Station Type Date Time Source
KNUW TAF 2022/11/27 07:15 UTC NOAA

TAF KNUW 2707/2807 15018G28KT 9999 -RA SCT008 OVC020 640409 641303 520002 540208 QNH2990INS
TEMPO 2707/2709 15012KT 4000 RA FEW008 SCT015 OVC030
FM270900 27025G35KT 9000 -SHRA SCT008 OVC020 640409 641303 520002 550209 QNH2993INS
TEMPO 2709/2711 27018G28KT 6000 -SHRA SCT020 BKN030 BKN100
BECMG 2711/2712 27018G28KT 9999 VCSH FEW020 SCT030 BKN100 600000 520009 QNH2996INS
FM271800 25012KT 9999 SCT040 BKN100 500000 QNH2987INS
FM280000 25010KT 9999 VCSH BKN030 BKN100 640309 QNH2979INS T06/2714Z T09/2722Z FS30020

Example: see airport list